sensor_id;sensor_type;location;lat;lon;timestamp;P1;durP1;ratioP1;P2;durP2;ratioP2
6131;SDS011;3097;42.692;23.278;2024-03-17T00:01:49;64.20;;;32.23;;
6131;SDS011;3097;42.692;23.278;2024-03-17T00:04:15;67.23;;;32.37;;
6131;SDS011;3097;42.692;23.278;2024-03-17T00:06:40;68.80;;;32.70;;
6131;SDS011;3097;42.692;23.278;2024-03-17T00:09:06;68.70;;;33.90;;
6131;SDS011;3097;42.692;23.278;2024-03-17T00:11:34;61.63;;;33.80;;
6131;SDS011;3097;42.692;23.278;2024-03-17T00:14:00;66.30;;;32.50;;
6131;SDS011;3097;42.692;23.278;2024-03-17T00:16:30;64.77;;;31.60;;
6131;SDS011;3097;42.692;23.278;2024-03-17T00:18:55;61.37;;;31.43;;
6131;SDS011;3097;42.692;23.278;2024-03-17T00:21:21;63.10;;;32.10;;
6131;SDS011;3097;42.692;23.278;2024-03-17T00:23:50;63.00;;;30.87;;
6131;SDS011;3097;42.692;23.278;2024-03-17T00:26:16;57.87;;;30.93;;
6131;SDS011;3097;42.692;23.278;2024-03-17T00:28:41;55.13;;;28.57;;
6131;SDS011;3097;42.692;23.278;2024-03-17T00:31:07;53.57;;;28.60;;
6131;SDS011;3097;42.692;23.278;2024-03-17T00:33:35;55.50;;;28.67;;
6131;SDS011;3097;42.692;23.278;2024-03-17T00:36:01;60.20;;;30.47;;
6131;SDS011;3097;42.692;23.278;2024-03-17T00:38:26;56.27;;;29.97;;
6131;SDS011;3097;42.692;23.278;2024-03-17T00:40:52;54.27;;;28.47;;
6131;SDS011;3097;42.692;23.278;2024-03-17T00:43:18;56.17;;;29.20;;
6131;SDS011;3097;42.692;23.278;2024-03-17T00:45:44;61.00;;;29.67;;
6131;SDS011;3097;42.692;23.278;2024-03-17T00:48:09;70.50;;;33.83;;
6131;SDS011;3097;42.692;23.278;2024-03-17T00:50:35;82.57;;;33.60;;
6131;SDS011;3097;42.692;23.278;2024-03-17T00:53:00;67.63;;;30.83;;
6131;SDS011;3097;42.692;23.278;2024-03-17T00:55:28;46.53;;;25.03;;
6131;SDS011;3097;42.692;23.278;2024-03-17T00:57:53;40.63;;;23.07;;
6131;SDS011;3097;42.692;23.278;2024-03-17T01:00:19;40.83;;;22.53;;
6131;SDS011;3097;42.692;23.278;2024-03-17T01:02:45;48.20;;;24.13;;
6131;SDS011;3097;42.692;23.278;2024-03-17T01:05:11;52.03;;;23.50;;
6131;SDS011;3097;42.692;23.278;2024-03-17T01:07:36;53.30;;;24.40;;
6131;SDS011;3097;42.692;23.278;2024-03-17T01:10:02;47.57;;;24.27;;
6131;SDS011;3097;42.692;23.278;2024-03-17T01:12:28;47.10;;;24.93;;
6131;SDS011;3097;42.692;23.278;2024-03-17T01:14:53;48.23;;;24.40;;
6131;SDS011;3097;42.692;23.278;2024-03-17T01:17:19;53.97;;;26.10;;
6131;SDS011;3097;42.692;23.278;2024-03-17T01:19:45;56.10;;;25.43;;
6131;SDS011;3097;42.692;23.278;2024-03-17T01:22:10;60.33;;;27.93;;
6131;SDS011;3097;42.692;23.278;2024-03-17T01:24:36;66.83;;;29.47;;
6131;SDS011;3097;42.692;23.278;2024-03-17T01:27:02;58.37;;;28.60;;
6131;SDS011;3097;42.692;23.278;2024-03-17T01:29:28;53.87;;;28.03;;
6131;SDS011;3097;42.692;23.278;2024-03-17T01:31:53;53.93;;;26.13;;
6131;SDS011;3097;42.692;23.278;2024-03-17T01:34:19;53.47;;;27.20;;
6131;SDS011;3097;42.692;23.278;2024-03-17T01:36:45;52.97;;;26.33;;
6131;SDS011;3097;42.692;23.278;2024-03-17T01:39:11;51.70;;;27.03;;
6131;SDS011;3097;42.692;23.278;2024-03-17T01:41:36;49.83;;;24.80;;
6131;SDS011;3097;42.692;23.278;2024-03-17T01:44:02;51.57;;;24.43;;
6131;SDS011;3097;42.692;23.278;2024-03-17T01:46:28;48.97;;;24.23;;
6131;SDS011;3097;42.692;23.278;2024-03-17T01:48:54;48.20;;;24.00;;
6131;SDS011;3097;42.692;23.278;2024-03-17T01:51:19;45.73;;;24.43;;
6131;SDS011;3097;42.692;23.278;2024-03-17T01:53:45;47.23;;;24.63;;
6131;SDS011;3097;42.692;23.278;2024-03-17T01:56:11;47.90;;;25.63;;
6131;SDS011;3097;42.692;23.278;2024-03-17T01:58:37;52.43;;;26.77;;
6131;SDS011;3097;42.692;23.278;2024-03-17T02:01:02;63.43;;;28.20;;
6131;SDS011;3097;42.692;23.278;2024-03-17T02:03:31;53.53;;;27.13;;
6131;SDS011;3097;42.692;23.278;2024-03-17T02:05:59;48.33;;;24.33;;
6131;SDS011;3097;42.692;23.278;2024-03-17T02:08:25;47.40;;;24.50;;
6131;SDS011;3097;42.692;23.278;2024-03-17T02:10:54;48.07;;;24.27;;
6131;SDS011;3097;42.692;23.278;2024-03-17T02:13:20;56.10;;;26.67;;
6131;SDS011;3097;42.692;23.278;2024-03-17T02:15:47;56.93;;;28.17;;
6131;SDS011;3097;42.692;23.278;2024-03-17T02:18:12;58.90;;;28.80;;
6131;SDS011;3097;42.692;23.278;2024-03-17T02:20:39;56.53;;;28.00;;
6131;SDS011;3097;42.692;23.278;2024-03-17T02:23:21;54.47;;;27.53;;
6131;SDS011;3097;42.692;23.278;2024-03-17T02:25:46;50.77;;;24.23;;
6131;SDS011;3097;42.692;23.278;2024-03-17T02:28:13;50.43;;;25.40;;
6131;SDS011;3097;42.692;23.278;2024-03-17T02:30:39;53.47;;;26.67;;
6131;SDS011;3097;42.692;23.278;2024-03-17T02:33:05;46.33;;;23.20;;
6131;SDS011;3097;42.692;23.278;2024-03-17T02:35:30;43.77;;;23.03;;
6131;SDS011;3097;42.692;23.278;2024-03-17T02:37:56;46.57;;;23.57;;
6131;SDS011;3097;42.692;23.278;2024-03-17T02:40:21;41.50;;;21.67;;
6131;SDS011;3097;42.692;23.278;2024-03-17T02:42:47;35.73;;;19.73;;
6131;SDS011;3097;42.692;23.278;2024-03-17T02:45:13;35.00;;;19.30;;
6131;SDS011;3097;42.692;23.278;2024-03-17T02:47:39;42.77;;;20.23;;
6131;SDS011;3097;42.692;23.278;2024-03-17T02:50:05;36.90;;;20.10;;
6131;SDS011;3097;42.692;23.278;2024-03-17T02:52:31;37.43;;;19.13;;
6131;SDS011;3097;42.692;23.278;2024-03-17T02:54:57;38.40;;;20.37;;
6131;SDS011;3097;42.692;23.278;2024-03-17T02:57:23;35.73;;;19.80;;
6131;SDS011;3097;42.692;23.278;2024-03-17T02:59:50;36.50;;;19.27;;
6131;SDS011;3097;42.692;23.278;2024-03-17T03:02:17;36.07;;;18.93;;
6131;SDS011;3097;42.692;23.278;2024-03-17T03:04:42;32.20;;;18.40;;
6131;SDS011;3097;42.692;23.278;2024-03-17T03:07:08;33.50;;;17.60;;
6131;SDS011;3097;42.692;23.278;2024-03-17T03:09:34;34.67;;;17.67;;
6131;SDS011;3097;42.692;23.278;2024-03-17T03:12:00;34.50;;;18.33;;
6131;SDS011;3097;42.692;23.278;2024-03-17T03:14:29;32.93;;;18.30;;
6131;SDS011;3097;42.692;23.278;2024-03-17T03:16:56;37.40;;;18.43;;
6131;SDS011;3097;42.692;23.278;2024-03-17T03:19:23;56.63;;;29.73;;
6131;SDS011;3097;42.692;23.278;2024-03-17T03:21:49;44.27;;;22.23;;
6131;SDS011;3097;42.692;23.278;2024-03-17T03:24:15;38.93;;;19.70;;
6131;SDS011;3097;42.692;23.278;2024-03-17T03:26:41;36.60;;;20.20;;
6131;SDS011;3097;42.692;23.278;2024-03-17T03:29:06;38.77;;;19.77;;
6131;SDS011;3097;42.692;23.278;2024-03-17T03:31:32;38.50;;;19.37;;
6131;SDS011;3097;42.692;23.278;2024-03-17T03:33:58;39.90;;;20.43;;
6131;SDS011;3097;42.692;23.278;2024-03-17T03:36:26;39.07;;;19.33;;
6131;SDS011;3097;42.692;23.278;2024-03-17T03:38:53;41.53;;;20.53;;
6131;SDS011;3097;42.692;23.278;2024-03-17T03:41:19;36.80;;;20.17;;
6131;SDS011;3097;42.692;23.278;2024-03-17T03:43:44;37.37;;;20.00;;
6131;SDS011;3097;42.692;23.278;2024-03-17T03:46:13;37.77;;;19.90;;
6131;SDS011;3097;42.692;23.278;2024-03-17T03:48:39;35.93;;;20.00;;
6131;SDS011;3097;42.692;23.278;2024-03-17T03:51:05;39.70;;;19.63;;
6131;SDS011;3097;42.692;23.278;2024-03-17T03:53:32;40.90;;;21.87;;
6131;SDS011;3097;42.692;23.278;2024-03-17T03:55:58;45.17;;;22.53;;
6131;SDS011;3097;42.692;23.278;2024-03-17T03:58:29;45.13;;;23.70;;
6131;SDS011;3097;42.692;23.278;2024-03-17T04:00:55;43.90;;;21.97;;
6131;SDS011;3097;42.692;23.278;2024-03-17T04:03:23;42.13;;;22.30;;
6131;SDS011;3097;42.692;23.278;2024-03-17T04:05:48;41.43;;;21.03;;
6131;SDS011;3097;42.692;23.278;2024-03-17T04:08:14;43.17;;;21.20;;
6131;SDS011;3097;42.692;23.278;2024-03-17T04:10:39;42.43;;;22.27;;
6131;SDS011;3097;42.692;23.278;2024-03-17T04:13:05;41.13;;;22.20;;
6131;SDS011;3097;42.692;23.278;2024-03-17T04:15:30;39.50;;;21.97;;
6131;SDS011;3097;42.692;23.278;2024-03-17T04:17:56;47.23;;;23.07;;
6131;SDS011;3097;42.692;23.278;2024-03-17T04:20:21;45.40;;;24.30;;
6131;SDS011;3097;42.692;23.278;2024-03-17T04:22:47;44.23;;;23.97;;
6131;SDS011;3097;42.692;23.278;2024-03-17T04:25:13;49.60;;;24.17;;
6131;SDS011;3097;42.692;23.278;2024-03-17T04:27:39;44.07;;;24.27;;
6131;SDS011;3097;42.692;23.278;2024-03-17T04:30:06;49.43;;;24.13;;
6131;SDS011;3097;42.692;23.278;2024-03-17T04:32:32;48.27;;;25.37;;
6131;SDS011;3097;42.692;23.278;2024-03-17T04:34:58;47.10;;;24.80;;
6131;SDS011;3097;42.692;23.278;2024-03-17T04:37:25;53.27;;;25.33;;
6131;SDS011;3097;42.692;23.278;2024-03-17T04:39:50;44.07;;;23.83;;
6131;SDS011;3097;42.692;23.278;2024-03-17T04:42:16;44.67;;;22.80;;
6131;SDS011;3097;42.692;23.278;2024-03-17T04:44:43;44.73;;;23.90;;
6131;SDS011;3097;42.692;23.278;2024-03-17T04:47:10;46.23;;;24.17;;
6131;SDS011;3097;42.692;23.278;2024-03-17T04:49:38;45.67;;;24.13;;
6131;SDS011;3097;42.692;23.278;2024-03-17T04:52:05;42.60;;;24.13;;
6131;SDS011;3097;42.692;23.278;2024-03-17T04:54:31;43.20;;;22.97;;
6131;SDS011;3097;42.692;23.278;2024-03-17T04:56:57;41.97;;;21.77;;
6131;SDS011;3097;42.692;23.278;2024-03-17T04:59:22;40.37;;;22.07;;
6131;SDS011;3097;42.692;23.278;2024-03-17T05:01:48;39.57;;;21.63;;
6131;SDS011;3097;42.692;23.278;2024-03-17T05:04:14;42.93;;;21.77;;
6131;SDS011;3097;42.692;23.278;2024-03-17T05:06:40;41.70;;;21.70;;
6131;SDS011;3097;42.692;23.278;2024-03-17T05:09:07;50.87;;;22.23;;
6131;SDS011;3097;42.692;23.278;2024-03-17T05:11:33;39.53;;;20.60;;
6131;SDS011;3097;42.692;23.278;2024-03-17T05:14:00;42.47;;;21.83;;
6131;SDS011;3097;42.692;23.278;2024-03-17T05:16:26;41.90;;;22.20;;
6131;SDS011;3097;42.692;23.278;2024-03-17T05:18:54;42.67;;;22.23;;
6131;SDS011;3097;42.692;23.278;2024-03-17T05:21:20;38.33;;;21.00;;
6131;SDS011;3097;42.692;23.278;2024-03-17T05:23:47;40.70;;;21.50;;
6131;SDS011;3097;42.692;23.278;2024-03-17T05:26:13;39.93;;;20.60;;
6131;SDS011;3097;42.692;23.278;2024-03-17T05:28:39;38.47;;;20.73;;
6131;SDS011;3097;42.692;23.278;2024-03-17T05:31:04;37.73;;;19.77;;
6131;SDS011;3097;42.692;23.278;2024-03-17T05:33:30;35.20;;;19.43;;
6131;SDS011;3097;42.692;23.278;2024-03-17T05:35:59;36.23;;;19.30;;
6131;SDS011;3097;42.692;23.278;2024-03-17T05:38:27;32.23;;;19.07;;
6131;SDS011;3097;42.692;23.278;2024-03-17T05:40:54;35.33;;;18.13;;
6131;SDS011;3097;42.692;23.278;2024-03-17T05:43:27;33.27;;;17.97;;
6131;SDS011;3097;42.692;23.278;2024-03-17T05:45:54;39.83;;;19.27;;
6131;SDS011;3097;42.692;23.278;2024-03-17T05:48:22;36.50;;;19.87;;
6131;SDS011;3097;42.692;23.278;2024-03-17T05:50:49;37.40;;;19.10;;
6131;SDS011;3097;42.692;23.278;2024-03-17T05:53:20;32.13;;;18.33;;
6131;SDS011;3097;42.692;23.278;2024-03-17T05:55:49;32.00;;;18.63;;
6131;SDS011;3097;42.692;23.278;2024-03-17T05:58:15;29.77;;;18.30;;
6131;SDS011;3097;42.692;23.278;2024-03-17T06:00:41;36.87;;;18.93;;
6131;SDS011;3097;42.692;23.278;2024-03-17T06:03:06;32.70;;;18.80;;
6131;SDS011;3097;42.692;23.278;2024-03-17T06:05:32;36.27;;;18.87;;
6131;SDS011;3097;42.692;23.278;2024-03-17T06:08:00;29.50;;;18.83;;
6131;SDS011;3097;42.692;23.278;2024-03-17T06:10:28;33.80;;;19.27;;
6131;SDS011;3097;42.692;23.278;2024-03-17T06:12:55;32.07;;;19.03;;
6131;SDS011;3097;42.692;23.278;2024-03-17T06:15:22;37.97;;;20.23;;
6131;SDS011;3097;42.692;23.278;2024-03-17T06:17:49;35.17;;;20.83;;
6131;SDS011;3097;42.692;23.278;2024-03-17T06:20:17;37.20;;;20.70;;
6131;SDS011;3097;42.692;23.278;2024-03-17T06:22:43;39.63;;;20.03;;
6131;SDS011;3097;42.692;23.278;2024-03-17T06:25:08;35.47;;;20.67;;
6131;SDS011;3097;42.692;23.278;2024-03-17T06:27:37;37.30;;;21.43;;
6131;SDS011;3097;42.692;23.278;2024-03-17T06:30:02;34.20;;;21.00;;
6131;SDS011;3097;42.692;23.278;2024-03-17T06:32:38;35.97;;;21.53;;
6131;SDS011;3097;42.692;23.278;2024-03-17T06:35:03;33.83;;;21.87;;
6131;SDS011;3097;42.692;23.278;2024-03-17T06:37:29;32.80;;;19.40;;
6131;SDS011;3097;42.692;23.278;2024-03-17T06:39:56;31.63;;;19.03;;
6131;SDS011;3097;42.692;23.278;2024-03-17T06:42:22;35.77;;;20.87;;
6131;SDS011;3097;42.692;23.278;2024-03-17T06:44:47;29.70;;;18.63;;
6131;SDS011;3097;42.692;23.278;2024-03-17T06:47:13;28.90;;;18.23;;
6131;SDS011;3097;42.692;23.278;2024-03-17T06:49:38;28.07;;;18.13;;
6131;SDS011;3097;42.692;23.278;2024-03-17T06:52:04;28.97;;;17.93;;
6131;SDS011;3097;42.692;23.278;2024-03-17T06:54:30;25.90;;;17.73;;
6131;SDS011;3097;42.692;23.278;2024-03-17T06:56:59;27.77;;;18.07;;
6131;SDS011;3097;42.692;23.278;2024-03-17T06:59:25;27.63;;;18.33;;
6131;SDS011;3097;42.692;23.278;2024-03-17T07:01:50;37.50;;;19.23;;
6131;SDS011;3097;42.692;23.278;2024-03-17T07:04:16;26.77;;;18.13;;
6131;SDS011;3097;42.692;23.278;2024-03-17T07:06:42;28.40;;;17.97;;
6131;SDS011;3097;42.692;23.278;2024-03-17T07:09:08;27.87;;;18.00;;
6131;SDS011;3097;42.692;23.278;2024-03-17T07:11:34;29.00;;;18.00;;
6131;SDS011;3097;42.692;23.278;2024-03-17T07:14:02;30.63;;;17.83;;
6131;SDS011;3097;42.692;23.278;2024-03-17T07:16:29;25.93;;;17.90;;
6131;SDS011;3097;42.692;23.278;2024-03-17T07:18:57;27.63;;;17.60;;
6131;SDS011;3097;42.692;23.278;2024-03-17T07:21:22;26.33;;;18.53;;
6131;SDS011;3097;42.692;23.278;2024-03-17T07:23:48;27.33;;;17.90;;
6131;SDS011;3097;42.692;23.278;2024-03-17T07:26:14;26.33;;;17.70;;
6131;SDS011;3097;42.692;23.278;2024-03-17T07:28:42;34.97;;;19.00;;
6131;SDS011;3097;42.692;23.278;2024-03-17T07:31:10;28.90;;;18.40;;
6131;SDS011;3097;42.692;23.278;2024-03-17T07:33:38;28.07;;;18.57;;
6131;SDS011;3097;42.692;23.278;2024-03-17T07:36:04;27.30;;;17.70;;
6131;SDS011;3097;42.692;23.278;2024-03-17T07:38:30;25.07;;;16.33;;
6131;SDS011;3097;42.692;23.278;2024-03-17T07:43:29;18.93;;;13.80;;
6131;SDS011;3097;42.692;23.278;2024-03-17T07:48:30;23.77;;;14.53;;
6131;SDS011;3097;42.692;23.278;2024-03-17T07:50:57;21.17;;;14.87;;
6131;SDS011;3097;42.692;23.278;2024-03-17T07:53:24;22.80;;;14.30;;
6131;SDS011;3097;42.692;23.278;2024-03-17T07:56:11;23.53;;;15.40;;
6131;SDS011;3097;42.692;23.278;2024-03-17T07:58:37;23.70;;;14.50;;
6131;SDS011;3097;42.692;23.278;2024-03-17T08:01:07;25.63;;;13.40;;
6131;SDS011;3097;42.692;23.278;2024-03-17T08:03:35;21.50;;;14.13;;
6131;SDS011;3097;42.692;23.278;2024-03-17T08:06:02;22.33;;;12.73;;
6131;SDS011;3097;42.692;23.278;2024-03-17T08:08:29;22.37;;;12.93;;
6131;SDS011;3097;42.692;23.278;2024-03-17T08:10:56;33.23;;;18.27;;
6131;SDS011;3097;42.692;23.278;2024-03-17T08:13:22;17.53;;;12.30;;
6131;SDS011;3097;42.692;23.278;2024-03-17T08:16:21;18.10;;;11.80;;
6131;SDS011;3097;42.692;23.278;2024-03-17T08:18:42;19.13;;;12.43;;
6131;SDS011;3097;42.692;23.278;2024-03-17T08:21:07;18.90;;;12.47;;
6131;SDS011;3097;42.692;23.278;2024-03-17T08:23:33;16.63;;;10.87;;
6131;SDS011;3097;42.692;23.278;2024-03-17T08:26:01;16.07;;;11.23;;
6131;SDS011;3097;42.692;23.278;2024-03-17T08:28:27;16.33;;;11.60;;
6131;SDS011;3097;42.692;23.278;2024-03-17T08:30:54;18.80;;;12.00;;
6131;SDS011;3097;42.692;23.278;2024-03-17T08:33:20;20.67;;;13.23;;
6131;SDS011;3097;42.692;23.278;2024-03-17T08:35:57;22.03;;;14.53;;
6131;SDS011;3097;42.692;23.278;2024-03-17T08:38:23;27.10;;;14.30;;
6131;SDS011;3097;42.692;23.278;2024-03-17T08:40:53;19.40;;;13.43;;
6131;SDS011;3097;42.692;23.278;2024-03-17T08:43:22;22.60;;;14.17;;
6131;SDS011;3097;42.692;23.278;2024-03-17T08:45:57;20.57;;;13.50;;
6131;SDS011;3097;42.692;23.278;2024-03-17T08:48:25;20.83;;;13.73;;
6131;SDS011;3097;42.692;23.278;2024-03-17T08:50:52;17.97;;;13.40;;
6131;SDS011;3097;42.692;23.278;2024-03-17T08:53:19;20.07;;;14.00;;
6131;SDS011;3097;42.692;23.278;2024-03-17T08:55:45;17.03;;;13.03;;
6131;SDS011;3097;42.692;23.278;2024-03-17T08:58:11;18.67;;;13.27;;
6131;SDS011;3097;42.692;23.278;2024-03-17T09:00:36;22.03;;;15.20;;
6131;SDS011;3097;42.692;23.278;2024-03-17T09:03:02;27.47;;;13.83;;
6131;SDS011;3097;42.692;23.278;2024-03-17T09:05:28;31.77;;;15.20;;
6131;SDS011;3097;42.692;23.278;2024-03-17T09:07:54;21.30;;;13.77;;
6131;SDS011;3097;42.692;23.278;2024-03-17T09:10:20;17.93;;;12.57;;
6131;SDS011;3097;42.692;23.278;2024-03-17T09:12:46;17.20;;;12.23;;
6131;SDS011;3097;42.692;23.278;2024-03-17T09:15:12;18.80;;;11.33;;
6131;SDS011;3097;42.692;23.278;2024-03-17T09:17:39;15.20;;;10.80;;
6131;SDS011;3097;42.692;23.278;2024-03-17T09:20:05;14.23;;;10.50;;
6131;SDS011;3097;42.692;23.278;2024-03-17T09:22:36;13.67;;;10.37;;
6131;SDS011;3097;42.692;23.278;2024-03-17T09:25:06;17.97;;;10.67;;
6131;SDS011;3097;42.692;23.278;2024-03-17T09:27:33;13.67;;;11.00;;
6131;SDS011;3097;42.692;23.278;2024-03-17T09:29:59;14.13;;;11.40;;
6131;SDS011;3097;42.692;23.278;2024-03-17T09:32:25;13.83;;;10.23;;
6131;SDS011;3097;42.692;23.278;2024-03-17T09:34:51;11.63;;;10.07;;
6131;SDS011;3097;42.692;23.278;2024-03-17T09:37:16;9.47;;;8.23;;
6131;SDS011;3097;42.692;23.278;2024-03-17T09:39:42;15.03;;;8.70;;
6131;SDS011;3097;42.692;23.278;2024-03-17T09:42:17;16.97;;;11.00;;
6131;SDS011;3097;42.692;23.278;2024-03-17T09:44:46;14.43;;;11.10;;
6131;SDS011;3097;42.692;23.278;2024-03-17T09:47:22;12.10;;;8.63;;
6131;SDS011;3097;42.692;23.278;2024-03-17T09:49:49;11.00;;;7.73;;
6131;SDS011;3097;42.692;23.278;2024-03-17T09:52:22;10.03;;;6.90;;
6131;SDS011;3097;42.692;23.278;2024-03-17T09:55:07;8.37;;;7.30;;
6131;SDS011;3097;42.692;23.278;2024-03-17T09:57:35;16.83;;;9.83;;
6131;SDS011;3097;42.692;23.278;2024-03-17T10:00:04;8.57;;;7.77;;
6131;SDS011;3097;42.692;23.278;2024-03-17T10:02:47;9.47;;;7.77;;
6131;SDS011;3097;42.692;23.278;2024-03-17T10:05:23;9.37;;;8.43;;
6131;SDS011;3097;42.692;23.278;2024-03-17T10:07:50;11.93;;;7.50;;
6131;SDS011;3097;42.692;23.278;2024-03-17T10:10:20;12.00;;;9.33;;
6131;SDS011;3097;42.692;23.278;2024-03-17T10:12:49;18.17;;;11.10;;
6131;SDS011;3097;42.692;23.278;2024-03-17T10:15:18;13.30;;;9.40;;
6131;SDS011;3097;42.692;23.278;2024-03-17T10:17:45;8.10;;;6.53;;
6131;SDS011;3097;42.692;23.278;2024-03-17T10:20:20;9.07;;;5.37;;
6131;SDS011;3097;42.692;23.278;2024-03-17T10:22:58;8.50;;;7.57;;
6131;SDS011;3097;42.692;23.278;2024-03-17T10:25:26;9.03;;;7.30;;
6131;SDS011;3097;42.692;23.278;2024-03-17T10:27:53;11.80;;;6.37;;
6131;SDS011;3097;42.692;23.278;2024-03-17T10:30:20;6.10;;;5.10;;
6131;SDS011;3097;42.692;23.278;2024-03-17T10:32:51;7.80;;;7.00;;
6131;SDS011;3097;42.692;23.278;2024-03-17T10:35:28;33.73;;;8.67;;
6131;SDS011;3097;42.692;23.278;2024-03-17T10:37:54;12.10;;;7.90;;
6131;SDS011;3097;42.692;23.278;2024-03-17T10:40:24;8.67;;;7.40;;
6131;SDS011;3097;42.692;23.278;2024-03-17T10:42:51;8.43;;;5.83;;
6131;SDS011;3097;42.692;23.278;2024-03-17T10:45:17;8.00;;;5.70;;
6131;SDS011;3097;42.692;23.278;2024-03-17T10:47:44;3.90;;;3.60;;
6131;SDS011;3097;42.692;23.278;2024-03-17T10:50:22;7.30;;;5.97;;
6131;SDS011;3097;42.692;23.278;2024-03-17T10:52:51;16.47;;;6.87;;
6131;SDS011;3097;42.692;23.278;2024-03-17T10:57:47;6.17;;;5.67;;
6131;SDS011;3097;42.692;23.278;2024-03-17T11:00:16;5.90;;;5.40;;
6131;SDS011;3097;42.692;23.278;2024-03-17T11:02:44;7.93;;;7.03;;
6131;SDS011;3097;42.692;23.278;2024-03-17T11:05:13;11.17;;;6.10;;
6131;SDS011;3097;42.692;23.278;2024-03-17T11:07:42;7.73;;;6.93;;
6131;SDS011;3097;42.692;23.278;2024-03-17T11:10:14;6.30;;;5.67;;
6131;SDS011;3097;42.692;23.278;2024-03-17T11:12:42;7.17;;;6.17;;
6131;SDS011;3097;42.692;23.278;2024-03-17T11:17:45;7.00;;;6.40;;
6131;SDS011;3097;42.692;23.278;2024-03-17T11:20:17;6.67;;;6.07;;
6131;SDS011;3097;42.692;23.278;2024-03-17T11:22:50;7.17;;;6.43;;
6131;SDS011;3097;42.692;23.278;2024-03-17T11:27:52;8.33;;;7.40;;
6131;SDS011;3097;42.692;23.278;2024-03-17T11:38:51;12.40;;;6.27;;
6131;SDS011;3097;42.692;23.278;2024-03-17T11:46:56;5.60;;;5.10;;
6131;SDS011;3097;42.692;23.278;2024-03-17T11:51:57;12.90;;;6.47;;
6131;SDS011;3097;42.692;23.278;2024-03-17T11:54:32;6.07;;;5.57;;
6131;SDS011;3097;42.692;23.278;2024-03-17T11:57:02;13.20;;;5.50;;
6131;SDS011;3097;42.692;23.278;2024-03-17T11:59:35;6.80;;;5.47;;
6131;SDS011;3097;42.692;23.278;2024-03-17T12:02:02;7.13;;;5.30;;
6131;SDS011;3097;42.692;23.278;2024-03-17T12:04:28;6.20;;;5.57;;
6131;SDS011;3097;42.692;23.278;2024-03-17T12:06:58;6.63;;;5.80;;
6131;SDS011;3097;42.692;23.278;2024-03-17T12:09:25;8.33;;;6.40;;
6131;SDS011;3097;42.692;23.278;2024-03-17T12:12:04;9.40;;;5.37;;
6131;SDS011;3097;42.692;23.278;2024-03-17T12:14:37;5.27;;;4.77;;
6131;SDS011;3097;42.692;23.278;2024-03-17T12:17:04;6.83;;;5.60;;
6131;SDS011;3097;42.692;23.278;2024-03-17T12:19:32;8.10;;;6.70;;
6131;SDS011;3097;42.692;23.278;2024-03-17T12:21:59;8.80;;;6.60;;
6131;SDS011;3097;42.692;23.278;2024-03-17T12:24:32;13.87;;;6.97;;
6131;SDS011;3097;42.692;23.278;2024-03-17T12:27:00;11.47;;;7.20;;
6131;SDS011;3097;42.692;23.278;2024-03-17T12:29:33;7.97;;;6.00;;
6131;SDS011;3097;42.692;23.278;2024-03-17T12:32:01;6.23;;;5.27;;
6131;SDS011;3097;42.692;23.278;2024-03-17T12:34:29;5.20;;;4.70;;
6131;SDS011;3097;42.692;23.278;2024-03-17T12:36:56;7.10;;;6.40;;
6131;SDS011;3097;42.692;23.278;2024-03-17T12:39:23;6.63;;;6.03;;
6131;SDS011;3097;42.692;23.278;2024-03-17T12:42:03;9.20;;;7.00;;
6131;SDS011;3097;42.692;23.278;2024-03-17T12:44:33;7.33;;;6.00;;
6131;SDS011;3097;42.692;23.278;2024-03-17T12:47:06;7.13;;;6.43;;
6131;SDS011;3097;42.692;23.278;2024-03-17T12:49:34;11.83;;;7.63;;
6131;SDS011;3097;42.692;23.278;2024-03-17T12:52:00;11.23;;;7.33;;
6131;SDS011;3097;42.692;23.278;2024-03-17T12:54:27;13.53;;;8.57;;
6131;SDS011;3097;42.692;23.278;2024-03-17T12:57:09;11.63;;;8.47;;
6131;SDS011;3097;42.692;23.278;2024-03-17T12:59:55;11.30;;;8.10;;
6131;SDS011;3097;42.692;23.278;2024-03-17T13:02:42;8.33;;;6.93;;
6131;SDS011;3097;42.692;23.278;2024-03-17T13:07:36;8.23;;;7.37;;
6131;SDS011;3097;42.692;23.278;2024-03-17T13:10:03;7.73;;;6.93;;
6131;SDS011;3097;42.692;23.278;2024-03-17T13:12:29;8.30;;;7.47;;
6131;SDS011;3097;42.692;23.278;2024-03-17T13:14:55;11.17;;;8.77;;
6131;SDS011;3097;42.692;23.278;2024-03-17T13:17:20;12.37;;;9.10;;
6131;SDS011;3097;42.692;23.278;2024-03-17T13:19:46;15.23;;;9.03;;
6131;SDS011;3097;42.692;23.278;2024-03-17T13:22:12;10.30;;;8.17;;
6131;SDS011;3097;42.692;23.278;2024-03-17T13:24:38;14.23;;;8.17;;
6131;SDS011;3097;42.692;23.278;2024-03-17T13:27:04;13.37;;;9.40;;
6131;SDS011;3097;42.692;23.278;2024-03-17T13:29:34;14.40;;;9.80;;
6131;SDS011;3097;42.692;23.278;2024-03-17T13:32:03;8.73;;;7.83;;
6131;SDS011;3097;42.692;23.278;2024-03-17T13:34:30;10.17;;;7.20;;
6131;SDS011;3097;42.692;23.278;2024-03-17T13:36:56;11.00;;;7.37;;
6131;SDS011;3097;42.692;23.278;2024-03-17T13:39:22;10.93;;;8.60;;
6131;SDS011;3097;42.692;23.278;2024-03-17T13:41:49;10.43;;;7.93;;
6131;SDS011;3097;42.692;23.278;2024-03-17T13:44:16;12.83;;;10.03;;
6131;SDS011;3097;42.692;23.278;2024-03-17T13:46:42;12.90;;;9.60;;
6131;SDS011;3097;42.692;23.278;2024-03-17T13:49:08;14.60;;;10.40;;
6131;SDS011;3097;42.692;23.278;2024-03-17T13:51:34;11.87;;;8.53;;
6131;SDS011;3097;42.692;23.278;2024-03-17T13:53:59;16.40;;;10.07;;
6131;SDS011;3097;42.692;23.278;2024-03-17T13:56:26;9.37;;;7.87;;
6131;SDS011;3097;42.692;23.278;2024-03-17T13:58:52;8.77;;;7.70;;
6131;SDS011;3097;42.692;23.278;2024-03-17T14:01:17;11.70;;;8.63;;
6131;SDS011;3097;42.692;23.278;2024-03-17T14:03:43;9.63;;;8.30;;
6131;SDS011;3097;42.692;23.278;2024-03-17T14:06:09;10.60;;;8.37;;
6131;SDS011;3097;42.692;23.278;2024-03-17T14:08:35;13.33;;;10.10;;
6131;SDS011;3097;42.692;23.278;2024-03-17T14:11:03;13.33;;;9.87;;
6131;SDS011;3097;42.692;23.278;2024-03-17T14:13:32;12.57;;;9.10;;
6131;SDS011;3097;42.692;23.278;2024-03-17T14:15:57;13.43;;;9.67;;
6131;SDS011;3097;42.692;23.278;2024-03-17T14:18:24;11.97;;;9.20;;
6131;SDS011;3097;42.692;23.278;2024-03-17T14:20:49;16.57;;;11.40;;
6131;SDS011;3097;42.692;23.278;2024-03-17T14:23:15;14.00;;;9.50;;
6131;SDS011;3097;42.692;23.278;2024-03-17T14:25:42;13.87;;;8.83;;
6131;SDS011;3097;42.692;23.278;2024-03-17T14:28:07;12.47;;;9.27;;
6131;SDS011;3097;42.692;23.278;2024-03-17T14:30:34;12.90;;;9.23;;
6131;SDS011;3097;42.692;23.278;2024-03-17T14:32:59;11.50;;;9.63;;
6131;SDS011;3097;42.692;23.278;2024-03-17T14:35:31;15.63;;;8.93;;
6131;SDS011;3097;42.692;23.278;2024-03-17T14:37:57;16.63;;;10.53;;
6131;SDS011;3097;42.692;23.278;2024-03-17T14:40:24;15.20;;;10.93;;
6131;SDS011;3097;42.692;23.278;2024-03-17T14:42:53;15.67;;;10.80;;
6131;SDS011;3097;42.692;23.278;2024-03-17T14:45:23;17.77;;;10.50;;
6131;SDS011;3097;42.692;23.278;2024-03-17T14:47:49;13.67;;;9.83;;
6131;SDS011;3097;42.692;23.278;2024-03-17T14:50:15;14.90;;;10.40;;
6131;SDS011;3097;42.692;23.278;2024-03-17T14:52:41;12.67;;;10.33;;
6131;SDS011;3097;42.692;23.278;2024-03-17T14:55:08;18.27;;;11.70;;
6131;SDS011;3097;42.692;23.278;2024-03-17T14:57:38;11.67;;;9.63;;
6131;SDS011;3097;42.692;23.278;2024-03-17T15:00:10;16.37;;;9.40;;
6131;SDS011;3097;42.692;23.278;2024-03-17T15:02:43;12.23;;;9.33;;
6131;SDS011;3097;42.692;23.278;2024-03-17T15:05:13;12.03;;;9.00;;
6131;SDS011;3097;42.692;23.278;2024-03-17T15:07:47;11.60;;;8.90;;
6131;SDS011;3097;42.692;23.278;2024-03-17T15:10:13;15.53;;;9.83;;
6131;SDS011;3097;42.692;23.278;2024-03-17T15:12:48;14.63;;;9.33;;
6131;SDS011;3097;42.692;23.278;2024-03-17T15:15:15;15.47;;;9.87;;